Time;durP1;ratioP1;P1;durP2;ratioP2;P2;SDS_P1;SDS_P2;PMS_P1;PMS_P2;Temp;Humidity;BMP_temperature;BMP_pressure;BME280_temperature;BME280_humidity;BME280_pressure;Samples;Min_cycle;Max_cycle;Signal;HPM_P1;HPM_P2
2021/06/11 00:02:14;;;;;;;0.80;0.68;;;;;;;21.24;57.00;102111.50;5068065;28;20476;-83
2021/06/11 00:04:40;;;;;;;0.75;0.68;;;;;;;21.23;57.45;102107.03;5057143;28;20028;-83
2021/06/11 00:07:07;;;;;;;0.52;0.52;;;;;;;21.12;57.81;102115.63;5065347;28;20111;-82
2021/06/11 00:09:33;;;;;;;0.00;0.00;;;;;;;21.14;57.40;102113.72;5068306;28;20352;-82
2021/06/11 00:11:59;;;;;;;0.65;0.65;;;;;;;21.13;57.70;102114.69;5067465;28;20025;-83
2021/06/11 00:14:26;;;;;;;0.10;0.10;;;;;;;21.15;57.38;102111.91;5041066;28;20668;-83
2021/06/11 00:16:52;;;;;;;0.35;0.35;;;;;;;21.11;58.70;102111.19;5053836;28;20107;-82
2021/06/11 00:19:18;;;;;;;0.40;0.40;;;;;;;21.10;57.86;102114.81;5060541;28;20028;-83
2021/06/11 00:21:45;;;;;;;0.08;0.08;;;;;;;21.08;58.10;102118.53;5063705;28;20487;-83
2021/06/11 00:24:11;;;;;;;0.10;0.10;;;;;;;21.06;58.45;102117.69;5066221;28;20021;-83
2021/06/11 00:26:38;;;;;;;0.85;0.85;;;;;;;21.03;58.90;102123.25;5072524;28;20021;-83
2021/06/11 00:29:04;;;;;;;0.32;0.32;;;;;;;20.99;57.32;102112.56;5060604;28;20045;-83
2021/06/11 00:31:30;;;;;;;0.20;0.20;;;;;;;20.95;57.58;102116.38;5063321;28;20028;-82
2021/06/11 00:33:57;;;;;;;0.00;0.00;;;;;;;20.93;58.48;102117.38;5062445;28;20131;-82
2021/06/11 00:36:23;;;;;;;0.38;0.38;;;;;;;20.86;59.05;102122.16;5057614;28;20027;-82
2021/06/11 00:38:50;;;;;;;1.42;1.33;;;;;;;20.83;58.54;102116.88;5054157;28;20029;-83
2021/06/11 00:41:16;;;;;;;0.10;0.10;;;;;;;20.80;59.07;102117.91;5056834;28;20396;-84
2021/06/11 00:43:42;;;;;;;0.20;0.20;;;;;;;20.77;59.86;102111.75;5061821;28;20029;-83
2021/06/11 00:46:09;;;;;;;0.10;0.10;;;;;;;20.71;59.02;102112.91;5067277;28;20036;-83
2021/06/11 00:48:35;;;;;;;0.10;0.10;;;;;;;20.69;59.03;102115.63;5053449;28;20040;-83
2021/06/11 00:51:02;;;;;;;1.48;1.25;;;;;;;20.64;59.97;102106.00;5060533;28;20078;-83
2021/06/11 00:53:28;;;;;;;0.30;0.30;;;;;;;20.63;59.59;102115.03;5054197;28;20028;-83
2021/06/11 00:55:55;;;;;;;0.68;0.68;;;;;;;20.56;59.89;102114.41;5061979;28;20055;-82
2021/06/11 00:58:21;;;;;;;0.10;0.10;;;;;;;20.53;59.71;102109.13;5066976;28;20051;-82
2021/06/11 01:00:48;;;;;;;0.65;0.65;;;;;;;20.48;59.96;102103.06;5071941;28;20025;-83
2021/06/11 01:03:17;;;;;;;0.20;0.20;;;;;;;20.44;60.03;102104.16;5060170;28;20511;-82
2021/06/11 01:05:44;;;;;;;0.10;0.10;;;;;;;20.40;60.42;102099.81;5061596;28;20025;-83
2021/06/11 01:08:13;;;;;;;0.28;0.28;;;;;;;20.41;60.05;102106.97;5061856;28;20104;-83
2021/06/11 01:10:40;;;;;;;1.00;0.98;;;;;;;20.38;60.88;102099.03;5070242;28;20045;-82
2021/06/11 01:13:08;;;;;;;0.15;0.15;;;;;;;20.35;60.27;102100.91;5068680;28;20369;-82
2021/06/11 01:15:35;;;;;;;0.20;0.20;;;;;;;20.34;60.77;102104.50;5072468;28;20089;-82
2021/06/11 01:18:02;;;;;;;0.00;0.00;;;;;;;20.23;61.00;102098.69;5047504;28;20028;-83
2021/06/11 01:20:30;;;;;;;0.20;0.20;;;;;;;20.25;60.66;102102.22;5062349;28;20024;-83
2021/06/11 01:28:36;;;;;;;0.08;0.08;;;;;;;20.11;60.94;102094.72;5089113;27;20158;-84
2021/06/11 01:31:03;;;;;;;0.10;0.10;;;;;;;20.12;61.04;102098.25;5078471;28;20025;-84
2021/06/11 01:33:32;;;;;;;0.38;0.38;;;;;;;20.08;60.07;102097.50;5066227;28;20877;-83
2021/06/11 01:36:07;;;;;;;0.80;0.80;;;;;;;20.01;61.67;102106.75;5049837;28;20033;-83
2021/06/11 01:38:41;;;;;;;0.08;0.08;;;;;;;20.00;61.69;102105.88;5048701;28;20484;-83
2021/06/11 01:41:12;;;;;;;0.95;0.95;;;;;;;20.00;61.19;102099.63;5047866;28;20034;-83
2021/06/11 01:43:39;;;;;;;0.20;0.20;;;;;;;20.01;61.33;102102.28;5052599;28;20465;-82
2021/06/11 01:46:11;;;;;;;0.10;0.10;;;;;;;20.05;60.97;102097.66;5053386;28;20491;-83
2021/06/11 01:48:40;;;;;;;0.30;0.30;;;;;;;20.07;60.09;102105.66;5055711;28;20071;-83
2021/06/11 01:51:10;;;;;;;0.10;0.10;;;;;;;20.01;61.52;102102.28;5065631;28;20439;-82
2021/06/11 01:53:40;;;;;;;0.13;0.13;;;;;;;19.98;61.25;102102.38;5051089;28;20480;-82
2021/06/11 01:56:09;;;;;;;0.05;0.05;;;;;;;19.97;61.47;102100.63;5055830;28;20476;-82
2021/06/11 01:58:36;;;;;;;0.05;0.05;;;;;;;19.93;62.19;102093.63;5049959;28;20065;-82
2021/06/11 02:01:03;;;;;;;0.28;0.28;;;;;;;19.88;62.55;102090.25;5055371;28;20418;-82
2021/06/11 02:03:30;;;;;;;0.10;0.10;;;;;;;19.93;61.56;102085.53;5042746;28;20029;-82
2021/06/11 02:05:56;;;;;;;0.03;0.03;;;;;;;19.95;62.27;102086.38;5062687;28;20021;-82
2021/06/11 02:08:24;;;;;;;0.35;0.35;;;;;;;19.86;63.23;102076.84;5052944;28;20055;-82
2021/06/11 02:10:52;;;;;;;0.05;0.05;;;;;;;19.89;63.42;102067.78;5059803;28;20470;-82
2021/06/11 02:13:19;;;;;;;0.52;0.52;;;;;;;19.93;63.02;102066.72;5049564;28;20106;-82
2021/06/11 02:15:46;;;;;;;0.10;0.10;;;;;;;19.98;63.15;102070.09;5060735;28;20074;-83
2021/06/11 02:18:14;;;;;;;0.10;0.10;;;;;;;20.02;63.11;102066.34;5060772;28;20025;-83
2021/06/11 02:20:41;;;;;;;0.60;0.60;;;;;;;20.03;63.42;102068.09;5057591;28;20031;-82
2021/06/11 02:23:07;;;;;;;0.10;0.10;;;;;;;20.11;62.83;102057.03;5050999;28;20033;-82
2021/06/11 02:25:34;;;;;;;0.30;0.30;;;;;;;20.05;63.59;102049.22;5062573;28;20142;-82
2021/06/11 02:28:01;;;;;;;0.20;0.20;;;;;;;19.81;64.57;102048.34;5057821;28;20391;-82
2021/06/11 02:30:27;;;;;;;0.13;0.13;;;;;;;19.97;63.89;102045.97;5059651;28;20099;-83
2021/06/11 02:32:53;;;;;;;0.55;0.55;;;;;;;19.92;64.49;102051.50;5053469;28;20033;-82
2021/06/11 02:35:24;;;;;;;0.35;0.35;;;;;;;19.87;64.17;102050.81;5049889;28;20025;-82
2021/06/11 02:37:51;;;;;;;0.43;0.43;;;;;;;19.83;63.70;102043.81;5056859;28;20472;-82
2021/06/11 02:40:18;;;;;;;0.45;0.45;;;;;;;19.59;66.05;102054.56;5048731;28;20021;-82
2021/06/11 02:42:47;;;;;;;0.47;0.47;;;;;;;19.78;65.32;102048.47;5044526;28;20544;-82
2021/06/11 02:45:18;;;;;;;1.02;0.88;;;;;;;19.82;65.01;102047.41;5035584;28;20033;-83
2021/06/11 02:48:04;;;;;;;1.40;1.25;;;;;;;19.75;65.98;102049.47;5036504;28;20064;-82
2021/06/11 02:50:36;;;;;;;0.55;0.55;;;;;;;19.77;66.11;102047.59;5029046;28;20048;-82
2021/06/11 02:53:05;;;;;;;0.10;0.10;;;;;;;19.72;65.73;102050.44;5047164;28;20095;-82
2021/06/11 02:55:34;;;;;;;0.22;0.22;;;;;;;19.64;65.77;102049.91;5040320;28;20122;-82
2021/06/11 02:58:22;;;;;;;0.52;0.52;;;;;;;19.63;66.43;102058.88;5037723;28;20036;-82
2021/06/11 03:00:49;;;;;;;1.77;1.67;;;;;;;19.71;65.75;102055.91;5035364;28;20032;-82
2021/06/11 03:03:36;;;;;;;0.25;0.25;;;;;;;19.69;65.89;102064.03;5044522;28;20117;-83
2021/06/11 03:06:04;;;;;;;0.10;0.10;;;;;;;19.56;66.57;102057.38;5042299;28;20040;-82
2021/06/11 03:08:36;;;;;;;0.63;0.63;;;;;;;19.52;66.60;102050.38;5039750;28;20104;-83
2021/06/11 03:11:07;;;;;;;9.18;1.38;;;;;;;19.62;66.94;102053.59;5035148;28;20037;-82
2021/06/11 03:13:35;;;;;;;0.22;0.22;;;;;;;19.45;67.57;102059.59;5046569;28;20036;-82
2021/06/11 03:16:03;;;;;;;0.63;0.63;;;;;;;19.40;66.73;102057.97;5045026;28;20033;-82
2021/06/11 03:18:36;;;;;;;0.13;0.13;;;;;;;19.44;67.48;102057.84;5045043;28;20491;-82
2021/06/11 03:21:30;;;;;;;0.98;0.98;;;;;;;19.53;66.92;102057.50;5036777;28;20032;-82
2021/06/11 03:24:06;;;;;;;0.65;0.65;;;;;;;19.56;66.57;102057.38;5048065;28;20538;-83
2021/06/11 03:26:43;;;;;;;0.57;0.57;;;;;;;19.37;67.62;102055.38;5049055;28;20455;-82
2021/06/11 03:29:13;;;;;;;0.57;0.57;;;;;;;19.52;67.26;102045.00;5042564;28;20040;-82
2021/06/11 03:31:45;;;;;;;1.10;0.80;;;;;;;19.64;67.29;102038.25;5038247;28;20480;-82
2021/06/11 03:34:22;;;;;;;1.55;0.43;;;;;;;19.38;67.49;102049.06;5037653;28;20049;-82
2021/06/11 03:36:50;;;;;;;0.73;0.73;;;;;;;19.37;67.22;102055.38;5050495;28;20025;-82
2021/06/11 03:39:39;;;;;;;0.20;0.20;;;;;;;19.45;67.68;102059.59;5044479;28;20017;-82
2021/06/11 03:42:08;;;;;;;0.63;0.63;;;;;;;19.62;67.08;102048.22;5040622;28;20037;-81
2021/06/11 03:44:35;;;;;;;1.73;0.90;;;;;;;19.43;68.07;102048.00;5035127;28;20022;-83
2021/06/11 03:47:02;;;;;;;1.73;1.63;;;;;;;19.51;67.83;102046.78;5042954;28;20111;-82
2021/06/11 03:49:31;;;;;;;0.08;0.08;;;;;;;19.59;67.49;102042.94;5040540;28;20049;-82
2021/06/11 03:51:58;;;;;;;0.20;0.20;;;;;;;19.53;67.62;102052.13;5040634;28;20113;-83
2021/06/11 03:54:25;;;;;;;1.08;0.55;;;;;;;19.58;67.54;102054.63;5039904;28;20028;-82
2021/06/11 03:56:53;;;;;;;1.20;1.10;;;;;;;19.58;67.30;102054.63;5041594;28;20306;-82
2021/06/11 03:59:24;;;;;;;1.17;1.08;;;;;;;19.75;66.92;102059.34;5050343;28;20029;-82
2021/06/11 04:01:52;;;;;;;0.10;0.10;;;;;;;19.58;67.66;102060.88;5042625;28;20022;-82
2021/06/11 04:04:18;;;;;;;0.20;0.20;;;;;;;19.38;68.37;102059.81;5043137;28;20134;-82
2021/06/11 04:07:07;;;;;;;1.23;1.17;;;;;;;19.68;67.39;102067.66;5035527;28;20538;-81
2021/06/11 04:09:45;;;;;;;0.15;0.15;;;;;;;19.63;67.10;102075.03;5046450;28;20357;-81
2021/06/11 04:12:17;;;;;;;0.85;0.55;;;;;;;19.68;67.10;102062.28;5036105;28;20024;-82
2021/06/11 04:14:53;;;;;;;0.32;0.32;;;;;;;19.69;67.22;102066.72;5042760;28;20030;-83
2021/06/11 04:17:24;;;;;;;0.70;0.70;;;;;;;19.66;67.43;102069.50;5033824;28;20017;-83
2021/06/11 04:19:54;;;;;;;2.40;2.28;;;;;;;19.66;67.31;102064.13;5033442;28;20537;-82
2021/06/11 04:22:34;;;;;;;0.45;0.45;;;;;;;19.85;66.64;102074.19;5033321;28;20021;-82
2021/06/11 04:25:04;;;;;;;1.30;0.95;;;;;;;19.75;66.70;102070.09;5033525;28;20080;-82
2021/06/11 04:27:36;;;;;;;0.00;0.00;;;;;;;19.79;66.50;102067.25;5033057;28;20044;-82
2021/06/11 04:30:04;;;;;;;0.52;0.50;;;;;;;19.82;66.35;102074.31;5033525;28;20380;-83
2021/06/11 04:32:31;;;;;;;1.98;1.08;;;;;;;19.81;66.44;102078.81;5032797;28;20128;-83
2021/06/11 04:34:57;;;;;;;2.38;2.25;;;;;;;19.91;66.42;102073.97;5033372;28;20040;-82
2021/06/11 04:37:24;;;;;;;1.05;1.05;;;;;;;19.93;66.22;102068.53;5032536;28;20373;-82
2021/06/11 04:39:50;;;;;;;1.30;0.63;;;;;;;19.94;66.20;102070.28;5033014;28;20129;-83
2021/06/11 04:42:17;;;;;;;0.57;0.57;;;;;;;19.94;66.16;102073.84;5033305;28;20025;-82
2021/06/11 04:44:43;;;;;;;0.63;0.60;;;;;;;19.91;66.08;102079.34;5033013;28;20480;-82
2021/06/11 04:47:09;;;;;;;0.40;0.40;;;;;;;19.91;66.41;102073.97;5033290;28;20080;-82
2021/06/11 04:49:36;;;;;;;0.60;0.60;;;;;;;20.03;65.62;102078.00;5032645;28;20068;-82
2021/06/11 04:52:04;;;;;;;0.80;0.80;;;;;;;19.91;66.10;102079.34;5033234;28;20072;-83
2021/06/11 04:54:30;;;;;;;1.20;0.95;;;;;;;19.95;66.23;102090.84;5032932;28;20034;-83
2021/06/11 04:56:56;;;;;;;0.10;0.10;;;;;;;19.92;66.56;102091.00;5033171;28;20043;-82
2021/06/11 04:59:22;;;;;;;0.20;0.20;;;;;;;19.95;66.23;102091.75;5033028;28;20064;-82
2021/06/11 05:01:50;;;;;;;1.05;1.05;;;;;;;20.07;66.08;102090.38;5032088;28;20051;-83
2021/06/11 05:04:16;;;;;;;0.75;0.75;;;;;;;20.21;65.48;102081.72;5034321;28;20053;-82
2021/06/11 05:06:42;;;;;;;0.52;0.52;;;;;;;20.20;65.69;102085.38;5035875;28;20063;-82
2021/06/11 05:09:08;;;;;;;0.43;0.43;;;;;;;20.26;65.67;102092.31;5033171;28;20026;-82
2021/06/11 05:11:34;;;;;;;0.85;0.82;;;;;;;20.24;65.75;102089.69;5034691;28;20029;-83
2021/06/11 05:14:00;;;;;;;0.20;0.20;;;;;;;20.35;65.56;102087.44;5032598;28;20473;-83
2021/06/11 05:16:27;;;;;;;0.70;0.63;;;;;;;20.48;65.17;102089.63;5029378;28;20041;-83
2021/06/11 05:18:54;;;;;;;2.75;0.98;;;;;;;20.39;65.68;102085.50;5030074;28;20038;-82
2021/06/11 05:21:20;;;;;;;1.17;0.70;;;;;;;20.63;65.17;102094.34;5032114;28;20449;-83
2021/06/11 05:23:46;;;;;;;1.38;1.27;;;;;;;20.37;65.56;102087.38;5032038;28;20087;-86
2021/06/11 05:26:12;;;;;;;4.45;2.28;;;;;;;20.51;65.24;102086.78;5032297;28;20381;-82
2021/06/11 05:28:38;;;;;;;4.75;3.38;;;;;;;20.69;64.88;102087.84;5038574;28;20049;-83
2021/06/11 05:31:04;;;;;;;1.17;1.13;;;;;;;20.78;64.67;102086.59;5034765;28;20033;-83
2021/06/11 05:33:31;;;;;;;8.27;3.33;;;;;;;20.77;64.71;102084.84;5035069;28;20041;-83
2021/06/11 05:35:57;;;;;;;2.15;1.58;;;;;;;20.94;64.19;102079.56;5033976;28;20037;-87
2021/06/11 05:38:23;;;;;;;5.43;2.00;;;;;;;21.08;63.88;102088.88;5041332;28;20348;-84
2021/06/11 05:40:50;;;;;;;1.17;1.15;;;;;;;21.10;63.93;102081.59;5036929;28;20029;-82
2021/06/11 05:43:16;;;;;;;0.82;0.82;;;;;;;21.20;63.74;102082.94;5030392;28;20030;-82
2021/06/11 05:45:42;;;;;;;3.78;1.40;;;;;;;21.36;63.24;102084.91;5030360;28;20108;-82
2021/06/11 05:48:09;;;;;;;0.68;0.43;;;;;;;21.43;62.98;102073.81;5030288;28;20033;-86
2021/06/11 05:50:35;;;;;;;1.90;1.50;;;;;;;21.40;62.75;102078.47;5030476;28;20152;-83
2021/06/11 05:53:02;;;;;;;1.75;1.65;;;;;;;21.37;63.12;102078.59;5029501;28;20042;-83
2021/06/11 05:55:31;;;;;;;2.85;2.60;;;;;;;21.49;62.56;102072.63;5029511;28;20025;-89
2021/06/11 05:57:57;;;;;;;0.32;0.32;;;;;;;21.66;61.97;102085.38;5021647;28;20512;-84
2021/06/11 06:00:23;;;;;;;0.63;0.63;;;;;;;21.60;62.24;102085.66;5027718;28;20029;-83
2021/06/11 06:02:50;;;;;;;1.00;0.47;;;;;;;21.83;61.73;102087.25;5019656;28;20515;-81
2021/06/11 06:05:16;;;;;;;1.13;1.13;;;;;;;21.85;61.72;102082.66;5031018;28;20029;-78
2021/06/11 06:07:42;;;;;;;1.70;0.93;;;;;;;21.90;61.70;102088.72;5026218;28;20033;-82
2021/06/11 06:10:09;;;;;;;1.17;0.55;;;;;;;22.01;61.25;102084.59;5030317;28;20028;-82
2021/06/11 06:12:36;;;;;;;1.23;1.17;;;;;;;21.97;61.06;102084.75;5032439;28;20425;-81
2021/06/11 06:15:04;;;;;;;0.50;0.50;;;;;;;22.04;61.07;102089.88;5035598;28;20021;-81
2021/06/11 06:17:34;;;;;;;3.17;2.97;;;;;;;22.18;60.38;102091.88;5035756;28;20484;-81
2021/06/11 06:20:03;;;;;;;0.75;0.75;;;;;;;22.26;60.27;102090.56;5027068;28;20022;-81
2021/06/11 06:22:29;;;;;;;1.70;1.60;;;;;;;22.35;60.22;102088.34;5034113;28;20511;-81
2021/06/11 06:24:55;;;;;;;2.15;2.05;;;;;;;22.49;60.07;102085.84;5035371;28;20480;-81
2021/06/11 06:27:21;;;;;;;0.80;0.63;;;;;;;22.53;59.77;102081.16;5035063;28;20037;-81
2021/06/11 06:29:47;;;;;;;1.05;1.05;;;;;;;22.55;59.31;102090.09;5035341;28;20069;-81
2021/06/11 06:32:13;;;;;;;2.88;2.65;;;;;;;22.65;59.32;102085.94;5034863;28;20068;-81
2021/06/11 06:34:42;;;;;;;0.70;0.70;;;;;;;22.80;58.98;102084.28;5035177;28;20080;-81
2021/06/11 06:37:10;;;;;;;0.65;0.65;;;;;;;22.90;58.97;102079.28;5033843;28;20515;-82
2021/06/11 06:39:38;;;;;;;0.40;0.40;;;;;;;22.92;58.58;102077.38;5023840;28;20032;-84
2021/06/11 06:42:06;;;;;;;3.10;1.85;;;;;;;22.99;58.60;102086.91;5027604;28;20435;-80
2021/06/11 06:44:33;;;;;;;0.98;0.98;;;;;;;22.79;58.92;102090.63;5024121;28;20465;-81
2021/06/11 06:46:59;;;;;;;1.40;1.30;;;;;;;22.81;58.73;102090.56;5027728;28;20042;-82
2021/06/11 06:49:26;;;;;;;1.35;1.25;;;;;;;22.79;58.76;102098.72;5031997;28;20108;-80
2021/06/11 06:51:52;;;;;;;2.05;1.95;;;;;;;22.97;58.47;102088.81;5033542;28;20025;-80
2021/06/11 06:54:18;;;;;;;0.88;0.88;;;;;;;23.10;58.60;102091.72;5034503;28;20032;-81
2021/06/11 06:56:44;;;;;;;1.48;0.68;;;;;;;23.09;58.19;102093.56;5031960;28;20119;-81
2021/06/11 06:59:10;;;;;;;1.75;1.65;;;;;;;23.16;58.08;102090.56;5034638;28;20033;-83
2021/06/11 07:01:37;;;;;;;1.23;1.23;;;;;;;23.51;57.69;102095.88;5034970;28;20112;-81
2021/06/11 07:04:03;;;;;;;3.80;1.25;;;;;;;23.36;57.64;102097.59;5027941;28;20084;-80
2021/06/11 07:06:30;;;;;;;1.70;1.33;;;;;;;23.23;57.77;102089.28;5026030;28;20029;-80
2021/06/11 07:08:56;;;;;;;2.30;2.20;;;;;;;23.32;57.25;102101.44;5028740;28;20041;-82
2021/06/11 07:11:22;;;;;;;1.58;1.10;;;;;;;23.35;57.50;102102.16;5021464;28;20176;-81
2021/06/11 07:13:49;;;;;;;0.77;0.77;;;;;;;23.53;57.21;102089.44;5032308;28;20025;-81
2021/06/11 07:16:15;;;;;;;2.05;1.60;;;;;;;23.43;57.42;102099.03;5034739;28;20025;-81
2021/06/11 07:18:41;;;;;;;2.58;2.33;;;;;;;23.37;57.32;102097.50;5035052;28;20461;-81
2021/06/11 07:21:10;;;;;;;3.17;1.40;;;;;;;23.49;57.32;102095.09;5034534;28;20428;-81
2021/06/11 07:23:36;;;;;;;2.28;2.08;;;;;;;23.74;56.73;102087.38;5034720;28;20021;-82
2021/06/11 07:26:05;;;;;;;8.18;3.63;;;;;;;23.77;56.78;102088.16;5034384;28;20455;-81
2021/06/11 07:28:34;;;;;;;7.97;1.77;;;;;;;23.87;56.50;102079.41;5034386;28;20091;-81
2021/06/11 07:31:00;;;;;;;0.82;0.82;;;;;;;23.94;56.26;102076.41;5034397;28;20048;-81
2021/06/11 07:33:26;;;;;;;6.60;2.63;;;;;;;23.78;56.69;102085.38;5034999;28;20121;-82
2021/06/11 07:35:55;;;;;;;0.60;0.60;;;;;;;24.02;56.26;102090.38;5030702;28;20443;-81
2021/06/11 07:38:21;;;;;;;0.40;0.40;;;;;;;24.02;56.05;102087.66;5030818;28;20029;-81
2021/06/11 07:40:49;;;;;;;2.42;2.10;;;;;;;24.07;55.40;102096.41;5030207;28;20060;-81
2021/06/11 07:43:16;;;;;;;1.27;1.17;;;;;;;24.14;55.25;102099.59;5034218;28;20025;-81
2021/06/11 07:45:42;;;;;;;1.05;1.05;;;;;;;24.39;55.31;102102.63;5034066;28;20465;-81
2021/06/11 07:48:08;;;;;;;1.30;1.20;;;;;;;24.28;55.44;102091.56;5021570;28;20034;-81
2021/06/11 07:50:34;;;;;;;0.95;0.95;;;;;;;24.27;55.22;102100.66;5025704;28;20029;-81
2021/06/11 07:53:01;;;;;;;1.88;1.77;;;;;;;24.30;55.13;102097.78;5033983;28;20029;-81
2021/06/11 07:55:27;;;;;;;6.40;2.17;;;;;;;24.47;54.94;102099.47;5034225;28;20041;-81
2021/06/11 07:57:53;;;;;;;0.88;0.88;;;;;;;24.63;55.17;102090.44;5032455;28;20076;-81
2021/06/11 08:00:20;;;;;;;2.83;0.68;;;;;;;24.68;54.31;102099.22;5033934;28;20037;-82
2021/06/11 08:02:46;;;;;;;0.40;0.40;;;;;;;24.78;54.32;102097.69;5033790;28;20037;-82
2021/06/11 08:05:12;;;;;;;0.47;0.47;;;;;;;24.71;54.22;102094.47;5033998;28;20021;-82
2021/06/11 08:07:39;;;;;;;1.00;1.00;;;;;;;24.78;54.18;102094.97;5032886;28;20435;-82
2021/06/11 08:10:06;;;;;;;1.42;1.33;;;;;;;25.00;54.19;102094.53;5033014;28;20029;-82
2021/06/11 08:12:32;;;;;;;3.03;2.83;;;;;;;24.97;53.44;102093.84;5033709;28;20079;-82
2021/06/11 08:14:58;;;;;;;1.17;1.17;;;;;;;24.90;53.82;102084.34;5033814;28;20029;-82
2021/06/11 08:17:26;;;;;;;1.88;1.77;;;;;;;25.17;52.65;102092.63;5033661;28;20037;-82
2021/06/11 08:19:52;;;;;;;0.98;0.98;;;;;;;25.15;52.67;102097.28;5033599;28;20476;-82
2021/06/11 08:22:19;;;;;;;0.50;0.50;;;;;;;25.25;52.83;102095.72;5032920;28;20027;-81
2021/06/11 08:24:45;;;;;;;2.38;1.92;;;;;;;24.94;52.98;102094.91;5032962;28;20108;-82
2021/06/11 08:27:11;;;;;;;1.40;1.15;;;;;;;24.91;52.89;102095.13;5032803;28;20073;-82
2021/06/11 08:29:40;;;;;;;2.40;1.25;;;;;;;24.85;53.19;102098.19;5022097;28;20033;-83
2021/06/11 08:32:06;;;;;;;0.47;0.47;;;;;;;24.91;53.19;102099.66;5025191;28;20072;-82
2021/06/11 08:34:36;;;;;;;1.55;0.77;;;;;;;24.92;53.88;102099.53;5025782;28;20064;-82
2021/06/11 08:37:04;;;;;;;1.55;1.45;;;;;;;24.83;53.66;102108.25;5031397;28;20500;-82
2021/06/11 08:39:31;;;;;;;1.25;0.95;;;;;;;24.94;53.26;102105.75;5032898;28;20025;-81
2021/06/11 08:41:57;;;;;;;2.30;1.42;;;;;;;24.83;52.96;102114.53;5032649;28;20034;-82
2021/06/11 08:44:26;;;;;;;0.35;0.35;;;;;;;25.04;52.43;102100.66;5022223;28;20036;-82
2021/06/11 08:46:54;;;;;;;0.55;0.55;;;;;;;25.10;52.12;102100.28;5028628;28;20033;-90
2021/06/11 08:49:23;;;;;;;0.20;0.20;;;;;;;25.35;52.35;102102.31;5033071;28;20043;-84
2021/06/11 08:51:51;;;;;;;1.20;1.17;;;;;;;25.25;51.62;102103.00;5032917;28;20029;-82
2021/06/11 08:54:18;;;;;;;0.40;0.40;;;;;;;25.08;52.27;102099.47;5032924;28;20021;-81
2021/06/11 08:56:45;;;;;;;0.35;0.35;;;;;;;25.26;52.44;102105.63;5032839;28;20110;-81
2021/06/11 08:59:12;;;;;;;0.20;0.20;;;;;;;25.37;52.16;102102.25;5032901;28;20017;-81
2021/06/11 09:01:39;;;;;;;0.70;0.70;;;;;;;25.43;51.77;102101.84;5032899;28;20037;-82
2021/06/11 09:04:05;;;;;;;4.70;2.63;;;;;;;25.34;51.64;102097.00;5033172;28;20033;-81
2021/06/11 09:06:31;;;;;;;1.70;1.58;;;;;;;25.31;51.59;102105.31;5032600;28;20159;-82
2021/06/11 09:09:01;;;;;;;0.32;0.32;;;;;;;25.48;51.55;102105.19;5032674;28;20032;-81
2021/06/11 09:14:22;;;;;;;0.20;0.20;;;;;;;25.34;51.99;102111.41;5041200;28;20415;-81
2021/06/11 09:20:02;;;;;;;0.00;0.00;;;;;;;25.38;51.21;102103.13;5058709;28;20403;-81
2021/06/11 09:22:45;;;;;;;0.45;0.45;;;;;;;25.38;51.71;102104.00;5049834;28;20029;-81
2021/06/11 09:25:30;;;;;;;0.10;0.10;;;;;;;25.39;51.81;102115.72;5030068;28;20030;-80
2021/06/11 09:27:58;;;;;;;0.63;0.63;;;;;;;25.42;51.89;102111.00;5030379;28;20026;-81
2021/06/11 09:33:40;;;;;;;0.32;0.32;;;;;;;25.30;52.46;102114.44;5048601;28;20774;-82
2021/06/11 09:36:14;;;;;;;0.30;0.30;;;;;;;25.61;51.51;102105.25;5049120;28;20037;-82
2021/06/11 09:38:44;;;;;;;0.20;0.20;;;;;;;25.69;51.60;102112.91;5049997;28;20471;-81
2021/06/11 09:41:11;;;;;;;0.08;0.08;;;;;;;25.74;50.58;102113.47;5049828;28;20044;-81
2021/06/11 09:43:55;;;;;;;1.10;0.40;;;;;;;25.67;50.69;102110.28;5049903;28;20034;-81
2021/06/11 09:46:22;;;;;;;0.30;0.30;;;;;;;25.99;50.39;102111.88;5049597;28;20551;-81
2021/06/11 09:48:50;;;;;;;1.08;1.08;;;;;;;26.00;50.29;102111.78;5049926;28;20038;-81
2021/06/11 09:54:27;;;;;;;6.68;0.95;;;;;;;26.19;49.98;102120.59;5105365;27;20440;-81
2021/06/11 09:56:55;;;;;;;0.20;0.20;;;;;;;25.90;49.93;102115.22;5070182;28;20119;-81
2021/06/11 09:59:41;;;;;;;0.40;0.40;;;;;;;26.00;50.03;102116.34;5069804;28;20418;-81
2021/06/11 10:02:15;;;;;;;0.22;0.22;;;;;;;26.11;49.82;102123.81;5069923;28;20033;-81
2021/06/11 10:04:42;;;;;;;0.30;0.30;;;;;;;26.06;50.43;102115.97;5069511;28;20475;-81
2021/06/11 10:07:11;;;;;;;0.30;0.30;;;;;;;25.74;50.25;102105.31;5069794;28;20029;-81
2021/06/11 10:09:37;;;;;;;0.73;0.73;;;;;;;25.50;51.39;102116.78;5069595;28;20029;-81
2021/06/11 10:12:04;;;;;;;0.45;0.45;;;;;;;25.84;50.68;102111.94;5069327;28;20028;-81
2021/06/11 10:14:31;;;;;;;0.98;0.95;;;;;;;25.72;50.55;102109.13;5069571;28;20105;-82
2021/06/11 10:16:58;;;;;;;0.30;0.30;;;;;;;25.92;50.56;102110.53;5069286;28;20025;-81
2021/06/11 10:19:26;;;;;;;0.75;0.75;;;;;;;25.80;50.84;102107.63;5069570;28;20108;-81
2021/06/11 10:21:53;;;;;;;0.35;0.35;;;;;;;25.86;50.19;102114.53;5068952;28;20083;-81
2021/06/11 10:24:20;;;;;;;0.20;0.20;;;;;;;26.22;49.32;102109.50;5065849;28;20361;-80
2021/06/11 10:26:49;;;;;;;0.10;0.10;;;;;;;26.29;49.06;102099.97;5063359;28;20033;-80
2021/06/11 10:29:17;;;;;;;0.15;0.15;;;;;;;26.45;48.66;102102.53;5060057;28;20067;-81
2021/06/11 10:31:45;;;;;;;2.35;0.70;;;;;;;26.52;48.86;102106.59;5060237;28;20029;-81
2021/06/11 10:34:11;;;;;;;0.30;0.30;;;;;;;26.74;48.14;102108.75;5061490;28;20043;-82
2021/06/11 10:36:43;;;;;;;0.57;0.57;;;;;;;26.83;48.14;102106.34;5069098;28;20028;-81
2021/06/11 10:45:01;;;;;;;0.40;0.40;;;;;;;27.05;48.35;102098.44;5040127;28;20410;-81
2021/06/11 10:47:31;;;;;;;1.52;0.75;;;;;;;26.68;47.79;102109.13;5046490;28;20029;-82
2021/06/11 10:53:31;;;;;;;1.98;0.65;;;;;;;26.85;47.63;102102.56;5031050;28;20415;-82
2021/06/11 10:56:14;;;;;;;1.50;1.40;;;;;;;27.06;47.34;102097.44;5050030;28;20029;-83
2021/06/11 10:58:43;;;;;;;0.85;0.85;;;;;;;26.56;48.51;102093.66;5050052;28;20145;-81
2021/06/11 11:01:27;;;;;;;0.30;0.30;;;;;;;26.71;48.31;102095.31;5049773;28;20072;-81
2021/06/11 11:03:55;;;;;;;1.02;0.82;;;;;;;26.88;47.76;102091.47;5043356;28;20096;-82
2021/06/11 11:06:26;;;;;;;1.40;1.30;;;;;;;26.87;47.64;102099.75;5034968;28;20025;-82
2021/06/11 11:08:55;;;;;;;0.45;0.45;;;;;;;27.15;47.22;102103.25;5035626;28;20113;-82
2021/06/11 11:11:32;;;;;;;0.90;0.90;;;;;;;27.16;47.42;102100.41;5033273;28;20095;-82
2021/06/11 11:13:59;;;;;;;3.10;1.23;;;;;;;27.26;46.68;102100.63;5029270;28;20159;-81
2021/06/11 11:16:28;;;;;;;0.45;0.45;;;;;;;26.83;47.34;102103.63;5029961;28;20061;-81
2021/06/11 11:18:55;;;;;;;2.33;2.17;;;;;;;26.89;47.25;102104.09;5046653;28;20025;-81
2021/06/11 11:21:30;;;;;;;0.93;0.88;;;;;;;26.92;47.21;102103.88;5049436;28;20476;-82
2021/06/11 11:24:08;;;;;;;1.77;1.65;;;;;;;26.69;47.99;102099.13;5049232;28;20033;-81
2021/06/11 11:29:35;;;;;;;1.23;1.17;;;;;;;26.59;47.95;102107.03;5110662;27;20403;-81
2021/06/11 11:32:02;;;;;;;0.80;0.80;;;;;;;26.55;48.16;102100.06;5081710;28;20028;-81
2021/06/11 11:34:28;;;;;;;0.70;0.70;;;;;;;26.43;48.55;102102.66;5085710;28;20077;-82
2021/06/11 11:36:54;;;;;;;2.38;0.80;;;;;;;26.48;48.35;102105.94;5100998;28;20036;-81
2021/06/11 11:39:20;;;;;;;2.08;1.98;;;;;;;26.82;47.61;102104.59;5107481;28;20035;-81
2021/06/11 11:41:48;;;;;;;0.35;0.35;;;;;;;26.86;47.73;102103.44;5102287;28;20030;-81
2021/06/11 11:44:14;;;;;;;0.30;0.30;;;;;;;26.89;47.51;102105.94;5101145;28;20098;-82
2021/06/11 11:46:40;;;;;;;4.65;1.38;;;;;;;26.89;47.42;102095.06;5103125;28;20048;-80
2021/06/11 11:49:06;;;;;;;0.68;0.68;;;;;;;26.82;47.62;102107.31;5107201;28;20036;-81
2021/06/11 11:51:32;;;;;;;2.25;2.08;;;;;;;26.85;47.48;102097.09;5097956;28;20033;-82
2021/06/11 11:53:58;;;;;;;1.02;1.00;;;;;;;26.76;47.54;102098.63;5102350;28;20028;-81
2021/06/11 11:56:25;;;;;;;1.05;0.55;;;;;;;26.85;46.95;102098.97;5101656;28;20016;-81
2021/06/11 11:58:51;;;;;;;0.73;0.73;;;;;;;26.64;47.56;102099.44;5089673;28;20068;-81
2021/06/11 12:01:17;;;;;;;1.08;0.82;;;;;;;26.72;48.16;102097.06;5089089;28;20387;-82